KWLD

Details ICAO KWLD
Name STROTHER FLD
Region United States
Timezone America/Chicago (UTC-6.0)
Plans Departing 2
Arriving 6
Stats Elevation 1,160 ft / 354 m (AMSL)
Location 37.168205° -97.038059°
Runways 2
Magnetic Variation 3.407° E
Sunrise 2017-12-14 13:35:33 UTC / 2017-12-14 07:35:33 Local
Sunset 2017-12-14 23:13:10 UTC / 2017-12-14 17:13:10 Local
Advertisement - Login to hide

Runways

ID Width Length Bearing (true) Bearing (mag) Surface Threshold Offset Overrun Length
13 75 ft / 23 m 3,138 ft / 956 m 140.13° 136.72° Asphalt 0 ft / 0 m 0 ft / 0 m
17 100 ft / 30 m 5,517 ft / 1,682 m 179.99° 176.58° Asphalt 0 ft / 0 m 0 ft / 0 m
31 75 ft / 23 m 3,138 ft / 956 m 320.14° 316.73° Asphalt 0 ft / 0 m 0 ft / 0 m
35 100 ft / 30 m 5,517 ft / 1,682 m 359.99° 356.58° Asphalt 0 ft / 0 m 0 ft / 0 m

Map

Weather


0- 5 10 15 20 25 30 35+ Temperature / ° C

Clouds and Precipitation
Forecast for 2017-12-15 00:00 UTC. Updated a few seconds ago

Ground ~20,000 ft ~40,000 ft Winds

METAR

KWLD 142054Z AUTO 33011KT 10SM CLR 09/M03 A3011 RMK AO2 SLP201 T00941033 56015

TAF

Not found

Frequencies

Recorded 118.02 MHz ASOS
Unicom 122.80 MHz CTAF/UNICOM
Warning: Do not use this data for real-world aviation or navigation. No guarantee of current accuracy is given.